Time;durP1;ratioP1;P1;durP2;ratioP2;P2;SDS_P1;SDS_P2;PMS_P1;PMS_P2;Temp;Humidity;BMP_temperature;BMP_pressure;BME280_temperature;BME280_humidity;BME280_pressure;Samples;Min_cycle;Max_cycle;Signal;HPM_P1;HPM_P2
2020/12/25 00:01:28;;;;;;;11.13;7.30;;;6.60;99.90;;;;;;5034219;28;20187;-64
2020/12/25 00:03:55;;;;;;;12.20;8.10;;;6.60;99.90;;;;;;5034207;28;20428;-60
2020/12/25 00:06:21;;;;;;;9.27;8.10;;;6.60;99.90;;;;;;5033936;28;20509;-64
2020/12/25 00:08:47;;;;;;;11.53;8.00;;;6.70;99.90;;;;;;5034193;28;20459;-60
2020/12/25 00:11:13;;;;;;;11.20;8.03;;;6.80;99.90;;;;;;5034565;28;20177;-64
2020/12/25 00:13:39;;;;;;;10.10;7.57;;;6.80;99.90;;;;;;5034267;28;20625;-65
2020/12/25 00:16:04;;;;;;;9.20;7.07;;;6.80;99.90;;;;;;5034172;28;20510;-65
2020/12/25 00:18:31;;;;;;;8.67;7.50;;;6.70;99.90;;;;;;5034142;28;20434;-64
2020/12/25 00:20:57;;;;;;;7.97;6.23;;;6.70;99.90;;;;;;5016429;28;20185;-64
2020/12/25 00:23:27;;;;;;;10.40;6.37;;;6.70;99.90;;;;;;5028721;28;20443;-61
2020/12/25 00:25:53;;;;;;;8.40;6.50;;;6.70;99.90;;;;;;5033588;28;20439;-62
2020/12/25 00:28:23;;;;;;;8.83;6.73;;;;;;;;;;5035293;28;20562;-64
2020/12/25 00:30:49;;;;;;;13.03;6.50;;;;;;;;;;5037038;28;20232;-61
2020/12/25 00:33:14;;;;;;;9.00;6.53;;;6.60;99.90;;;;;;5037350;28;20805;-60
2020/12/25 00:35:44;;;;;;;7.40;6.27;;;;;;;;;;5038509;28;20508;-61
2020/12/25 00:38:10;;;;;;;7.40;5.40;;;;;;;;;;5020524;28;20181;-61
2020/12/25 00:40:42;;;;;;;7.53;4.90;;;6.40;99.90;;;;;;5045799;28;20434;-60
2020/12/25 00:43:19;;;;;;;7.80;5.70;;;6.30;99.90;;;;;;5035708;28;20896;-68
2020/12/25 00:45:45;;;;;;;9.50;6.20;;;;;;;;;;5037483;28;20528;-68
2020/12/25 00:48:10;;;;;;;7.07;5.57;;;6.30;99.90;;;;;;5039511;28;20469;-67
2020/12/25 00:50:38;;;;;;;8.23;4.50;;;6.30;99.90;;;;;;5039691;28;20431;-59
2020/12/25 00:53:04;;;;;;;6.67;4.93;;;6.40;99.90;;;;;;5037438;28;20285;-67
2020/12/25 00:55:29;;;;;;;7.67;4.90;;;6.40;99.90;;;;;;5036509;28;20809;-59
2020/12/25 00:57:55;;;;;;;9.40;5.23;;;6.40;99.90;;;;;;5037523;28;20267;-59
2020/12/25 01:00:21;;;;;;;6.47;5.00;;;6.50;99.90;;;;;;5056587;28;20192;-60
2020/12/25 01:02:46;;;;;;;11.60;5.77;;;6.40;99.90;;;;;;5057877;28;20221;-60
2020/12/25 01:05:12;;;;;;;8.53;5.60;;;6.50;99.90;;;;;;5056294;28;20623;-60
2020/12/25 01:07:37;;;;;;;7.33;5.67;;;6.50;99.90;;;;;;5057145;28;20597;-67
2020/12/25 01:10:03;;;;;;;8.07;5.50;;;6.40;99.90;;;;;;5037732;28;20185;-67
2020/12/25 01:12:29;;;;;;;8.77;7.13;;;6.40;99.90;;;;;;5037362;28;20510;-68
2020/12/25 01:14:54;;;;;;;8.30;5.43;;;6.50;99.90;;;;;;5042859;28;20427;-59
2020/12/25 01:17:20;;;;;;;9.40;6.17;;;6.40;99.90;;;;;;5047410;28;20193;-66
2020/12/25 01:19:46;;;;;;;8.50;6.70;;;6.30;99.90;;;;;;5036939;28;20188;-67
2020/12/25 01:22:11;;;;;;;8.23;6.23;;;6.50;99.90;;;;;;5036760;28;20188;-67
2020/12/25 01:24:37;;;;;;;8.90;6.73;;;6.60;99.90;;;;;;5036939;28;20176;-66
2020/12/25 01:27:03;;;;;;;5.00;4.00;;;6.40;99.90;;;;;;5037305;28;20201;-58
2020/12/25 01:29:28;;;;;;;4.57;3.93;;;6.40;99.90;;;;;;5039783;28;20196;-59
2020/12/25 01:31:54;;;;;;;6.53;4.80;;;6.30;99.90;;;;;;5043290;28;20172;-59
2020/12/25 01:34:19;;;;;;;8.30;4.90;;;6.40;99.90;;;;;;5048792;28;20605;-66
2020/12/25 01:36:45;;;;;;;7.77;5.50;;;6.30;99.90;;;;;;5039338;28;20213;-66
2020/12/25 01:39:10;;;;;;;6.53;5.37;;;6.50;99.90;;;;;;5038028;28;20181;-58
2020/12/25 01:41:36;;;;;;;7.50;5.40;;;6.50;99.90;;;;;;5035520;28;20177;-58
2020/12/25 01:44:02;;;;;;;7.30;5.47;;;6.60;99.90;;;;;;5028574;28;20185;-66
2020/12/25 01:46:28;;;;;;;7.63;5.40;;;6.70;99.90;;;;;;5032069;28;20659;-66
2020/12/25 01:48:55;;;;;;;7.13;5.40;;;6.70;99.90;;;;;;5016635;28;20173;-58
2020/12/25 01:51:21;;;;;;;8.70;6.03;;;6.80;99.90;;;;;;5027142;28;20531;-68
2020/12/25 01:53:47;;;;;;;8.90;5.60;;;6.80;99.90;;;;;;5042801;28;20435;-58
2020/12/25 01:56:15;;;;;;;7.47;5.63;;;6.80;99.90;;;;;;5027861;28;20451;-67
2020/12/25 01:58:41;;;;;;;7.83;5.90;;;6.70;99.90;;;;;;5036019;28;20440;-58
2020/12/25 02:01:07;;;;;;;11.50;6.30;;;6.80;99.90;;;;;;5035191;28;20569;-59
2020/12/25 02:03:33;;;;;;;10.37;5.70;;;6.80;99.90;;;;;;5035929;28;20446;-67
2020/12/25 02:05:58;;;;;;;6.83;4.83;;;6.70;99.90;;;;;;5035982;28;20577;-68
2020/12/25 02:08:24;;;;;;;8.13;5.60;;;6.80;99.90;;;;;;5045145;28;20172;-67
2020/12/25 02:10:50;;;;;;;7.30;5.33;;;6.80;99.90;;;;;;5037262;28;20219;-60
2020/12/25 02:13:16;;;;;;;7.13;5.43;;;6.70;99.90;;;;;;5036569;28;20181;-68
2020/12/25 02:15:42;;;;;;;8.43;6.23;;;6.70;99.90;;;;;;5035875;28;20181;-59
2020/12/25 02:18:07;;;;;;;10.77;5.73;;;6.70;99.90;;;;;;5051741;28;20977;-59
2020/12/25 02:20:33;;;;;;;9.23;6.67;;;6.70;99.90;;;;;;5055760;28;20207;-68
2020/12/25 02:22:59;;;;;;;8.03;6.73;;;6.80;99.90;;;;;;5055976;28;20277;-59
2020/12/25 02:25:24;;;;;;;8.07;5.30;;;6.80;99.90;;;;;;5042704;28;20613;-59
2020/12/25 02:27:50;;;;;;;8.33;5.40;;;8.60;99.90;;;;;;5047625;28;20277;-60
2020/12/25 02:30:15;;;;;;;9.80;5.73;;;6.80;99.90;;;;;;5034443;28;20666;-60
2020/12/25 02:32:41;;;;;;;9.20;6.20;;;6.70;99.90;;;;;;5035741;28;20181;-61
2020/12/25 02:35:07;;;;;;;8.43;5.83;;;6.70;99.90;;;;;;5035470;28;20172;-58
2020/12/25 02:37:33;;;;;;;8.33;5.97;;;6.60;99.90;;;;;;5035327;28;20640;-69
2020/12/25 02:39:59;;;;;;;9.17;6.50;;;6.70;99.90;;;;;;5034513;28;20424;-69
2020/12/25 02:42:25;;;;;;;10.63;6.77;;;6.70;99.90;;;;;;5039443;28;20211;-67
2020/12/25 02:44:50;;;;;;;9.30;7.30;;;6.70;99.90;;;;;;5026955;28;20188;-59
2020/12/25 02:47:16;;;;;;;9.93;7.10;;;6.70;99.90;;;;;;5035244;28;20284;-59
2020/12/25 02:49:41;;;;;;;10.90;6.47;;;6.60;99.90;;;;;;5045869;28;20203;-59
2020/12/25 02:52:07;;;;;;;14.07;8.33;;;6.50;99.90;;;;;;5043848;28;20261;-67
2020/12/25 02:54:33;;;;;;;12.63;7.60;;;6.60;99.90;;;;;;5035441;28;20181;-67
2020/12/25 02:56:59;;;;;;;9.93;6.90;;;6.60;99.90;;;;;;5035771;28;20180;-58
2020/12/25 02:59:25;;;;;;;13.20;8.67;;;6.60;99.90;;;;;;5035513;28;20207;-58
2020/12/25 03:01:51;;;;;;;13.10;8.20;;;6.50;99.90;;;;;;5046904;28;20793;-59
2020/12/25 03:04:18;;;;;;;11.23;7.83;;;6.50;99.90;;;;;;5041376;28;20573;-66
2020/12/25 03:06:44;;;;;;;11.50;8.13;;;6.60;99.90;;;;;;5035146;28;20542;-65
2020/12/25 03:09:10;;;;;;;11.17;7.47;;;6.50;99.90;;;;;;5037072;28;20510;-66
2020/12/25 03:11:35;;;;;;;13.37;8.10;;;6.50;99.90;;;;;;5044987;28;20176;-66
2020/12/25 03:14:01;;;;;;;16.50;9.07;;;6.50;99.90;;;;;;5048436;28;20810;-59
2020/12/25 03:16:27;;;;;;;11.60;7.23;;;6.50;99.90;;;;;;5045848;28;20185;-58
2020/12/25 03:18:53;;;;;;;12.90;8.40;;;6.50;99.90;;;;;;5046917;28;20431;-65
2020/12/25 03:21:18;;;;;;;13.57;8.30;;;6.40;99.90;;;;;;5041948;28;20222;-66
2020/12/25 03:23:44;;;;;;;11.33;8.10;;;6.40;99.90;;;;;;5016502;28;20259;-58
2020/12/25 03:29:32;;;;;;;11.43;8.10;;;6.50;99.90;;;;;;5054514;28;20167;-59
2020/12/25 03:32:25;;;;;;;12.17;6.67;;;6.50;99.90;;;;;;5054469;28;20411;-67
2020/12/25 03:34:51;;;;;;;10.30;7.27;;;6.40;99.90;;;;;;5043212;28;20211;-67
2020/12/25 03:37:16;;;;;;;12.20;7.70;;;6.60;99.90;;;;;;5054244;28;20508;-67
2020/12/25 03:39:42;;;;;;;13.33;8.93;;;6.50;99.90;;;;;;5054595;28;20172;-68
2020/12/25 03:42:08;;;;;;;9.63;5.93;;;6.60;99.90;;;;;;5049986;28;20720;-61
2020/12/25 03:44:33;;;;;;;9.83;7.60;;;6.50;99.90;;;;;;5052077;28;20617;-68
2020/12/25 03:46:59;;;;;;;8.10;6.60;;;6.70;99.90;;;;;;5053642;28;20237;-60
2020/12/25 03:49:24;;;;;;;9.67;7.33;;;6.60;99.90;;;;;;5056612;28;20284;-59
2020/12/25 03:55:12;;;;;;;9.27;6.13;;;6.60;99.90;;;;;;5021902;28;20271;-67
2020/12/25 03:57:38;;;;;;;10.20;7.53;;;6.60;99.90;;;;;;5053503;28;20481;-67
2020/12/25 04:00:04;;;;;;;10.70;6.93;;;6.60;99.90;;;;;;5054177;28;20187;-67
2020/12/25 04:02:30;;;;;;;8.50;5.93;;;6.60;99.90;;;;;;5050719;28;20190;-68
2020/12/25 04:04:55;;;;;;;12.37;7.13;;;6.70;99.90;;;;;;5055360;28;20771;-59
2020/12/25 04:07:21;;;;;;;10.37;7.00;;;6.70;99.90;;;;;;5038375;28;20212;-68
2020/12/25 04:09:46;;;;;;;11.00;7.23;;;6.80;99.90;;;;;;5038335;28;20353;-68
2020/12/25 04:12:12;;;;;;;8.80;6.53;;;6.70;99.90;;;;;;5040033;28;20613;-68
2020/12/25 04:14:37;;;;;;;11.37;7.33;;;6.70;99.90;;;;;;5058105;28;20195;-68
2020/12/25 04:17:03;;;;;;;9.80;6.60;;;6.60;99.90;;;;;;5060297;28;20180;-68
2020/12/25 04:19:29;;;;;;;15.27;7.70;;;6.60;99.90;;;;;;5052792;28;20633;-59
2020/12/25 04:21:54;;;;;;;10.23;6.53;;;6.50;99.90;;;;;;5047096;28;20216;-67
2020/12/25 04:24:20;;;;;;;9.40;6.60;;;6.60;99.90;;;;;;5058573;28;20569;-67
2020/12/25 04:26:47;;;;;;;9.60;6.33;;;6.40;99.90;;;;;;5057950;28;20200;-59
2020/12/25 04:29:13;;;;;;;9.30;6.43;;;6.60;99.90;;;;;;5057821;28;20259;-66
2020/12/25 04:31:38;;;;;;;7.83;5.90;;;6.50;99.90;;;;;;5057882;28;20493;-59
2020/12/25 04:34:04;;;;;;;8.13;6.30;;;6.40;99.90;;;;;;5057870;28;20484;-59
2020/12/25 04:36:30;;;;;;;11.13;6.60;;;6.50;99.90;;;;;;5057700;28;20180;-59
2020/12/25 04:38:55;;;;;;;8.60;6.50;;;6.50;99.90;;;;;;5042423;28;20185;-68
2020/12/25 04:41:21;;;;;;;8.97;6.37;;;6.40;99.90;;;;;;5047092;28;20192;-59
2020/12/25 04:43:51;;;;;;;8.30;5.53;;;6.40;99.90;;;;;;5048534;28;20192;-59
2020/12/25 04:46:16;;;;;;;6.70;5.30;;;6.40;99.90;;;;;;5049267;28;20841;-67
2020/12/25 04:48:43;;;;;;;10.43;6.20;;;6.40;99.90;;;;;;5056693;28;20882;-67
2020/12/25 04:51:10;;;;;;;9.27;5.97;;;6.40;99.90;;;;;;5056644;28;20179;-59
2020/12/25 04:53:35;;;;;;;8.00;6.03;;;6.50;99.90;;;;;;5035050;28;20436;-59
2020/12/25 04:56:01;;;;;;;7.10;5.33;;;6.50;99.90;;;;;;5018005;28;20443;-60
2020/12/25 04:58:27;;;;;;;8.33;5.20;;;6.40;99.90;;;;;;5038841;28;20501;-68
2020/12/25 05:01:07;;;;;;;10.83;5.00;;;6.30;99.90;;;;;;5044686;28;20295;-59
2020/12/25 05:03:37;;;;;;;6.70;4.00;;;6.10;99.90;;;;;;5044240;28;20208;-67
2020/12/25 05:06:09;;;;;;;3.90;2.97;;;5.90;99.90;;;;;;5042608;28;20434;-67
2020/12/25 05:08:45;;;;;;;2.90;2.63;;;6.10;99.90;;;;;;5037235;28;20420;-60
2020/12/25 05:11:12;;;;;;;3.20;2.60;;;6.20;99.90;;;;;;5036484;28;20423;-67
2020/12/25 05:13:48;;;;;;;2.80;2.60;;;6.20;99.90;;;;;;5037270;28;20438;-67
2020/12/25 05:16:15;;;;;;;2.13;1.93;;;6.30;99.90;;;;;;5035034;28;20435;-59
2020/12/25 05:18:43;;;;;;;2.83;2.50;;;6.00;99.90;;;;;;5038135;28;20451;-59
2020/12/25 05:21:13;;;;;;;2.70;1.93;;;6.40;99.90;;;;;;5037998;28;20441;-59
2020/12/25 05:23:40;;;;;;;2.33;1.83;;;6.40;99.90;;;;;;5037030;28;20756;-67
2020/12/25 05:26:07;;;;;;;3.73;1.80;;;6.50;95.80;;;;;;5037523;28;20498;-60
2020/12/25 05:28:40;;;;;;;2.93;2.00;;;6.40;68.20;;;;;;5037495;28;20942;-59
2020/12/25 05:31:07;;;;;;;2.10;1.90;;;6.30;91.60;;;;;;5056765;28;20461;-59
2020/12/25 05:33:34;;;;;;;2.63;2.17;;;6.30;93.20;;;;;;5053107;28;20466;-60
2020/12/25 05:36:03;;;;;;;6.57;1.67;;;6.40;93.70;;;;;;5039586;28;20431;-60
2020/12/25 05:38:29;;;;;;;4.20;1.87;;;6.60;78.00;;;;;;5035610;28;20435;-59
2020/12/25 05:40:55;;;;;;;2.13;1.63;;;6.50;68.80;;;;;;5036699;28;20423;-67
2020/12/25 05:43:21;;;;;;;2.37;2.17;;;6.50;65.40;;;;;;5036871;28;20557;-66
2020/12/25 05:45:47;;;;;;;4.93;2.13;;;6.90;78.50;;;;;;5035426;28;20202;-66
2020/12/25 05:48:13;;;;;;;2.57;2.17;;;6.30;79.70;;;;;;5040001;28;20544;-67
2020/12/25 05:50:40;;;;;;;3.70;2.10;;;6.20;77.40;;;;;;5036399;28;20429;-59
2020/12/25 05:53:06;;;;;;;4.30;2.40;;;6.20;86.50;;;;;;5040280;28;20993;-66
2020/12/25 05:55:32;;;;;;;2.73;2.50;;;6.20;87.70;;;;;;5043890;28;20453;-66
2020/12/25 05:57:58;;;;;;;3.40;2.20;;;6.20;88.40;;;;;;5053023;28;20450;-66
2020/12/25 06:00:26;;;;;;;5.73;2.70;;;6.20;91.40;;;;;;5047852;28;20784;-67
2020/12/25 06:02:55;;;;;;;3.63;2.47;;;6.20;90.10;;;;;;5056074;28;20419;-66
2020/12/25 06:05:23;;;;;;;3.73;2.40;;;6.20;87.80;;;;;;5053466;28;20906;-67
2020/12/25 06:07:58;;;;;;;3.00;2.60;;;6.30;87.60;;;;;;5052772;28;20468;-59
2020/12/25 06:10:28;;;;;;;4.07;3.37;;;6.30;87.40;;;;;;5016287;28;20473;-59
2020/12/25 06:12:57;;;;;;;3.00;2.67;;;6.30;90.70;;;;;;5035254;28;20447;-59
2020/12/25 06:15:30;;;;;;;5.10;3.07;;;6.20;92.60;;;;;;5035622;28;20441;-59
2020/12/25 06:18:34;;;;;;;3.20;2.90;;;6.20;97.70;;;;;;5035189;28;20474;-66
2020/12/25 06:21:07;;;;;;;4.83;3.80;;;6.20;94.10;;;;;;4980782;28;20425;-59
2020/12/25 06:23:35;;;;;;;4.33;3.40;;;6.10;94.20;;;;;;4994225;28;20432;-60
2020/12/25 06:26:06;;;;;;;3.13;2.70;;;6.10;96.70;;;;;;5016154;28;20450;-67
2020/12/25 06:28:32;;;;;;;3.63;3.27;;;6.10;99.90;;;;;;5035745;28;20427;-60
2020/12/25 06:30:58;;;;;;;3.97;3.27;;;6.20;99.90;;;;;;5053917;28;20470;-66
2020/12/25 06:33:31;;;;;;;2.87;2.63;;;6.10;99.90;;;;;;5054466;28;20418;-67
2020/12/25 06:36:00;;;;;;;2.77;2.50;;;6.20;99.90;;;;;;5051986;28;20175;-67
2020/12/25 06:38:26;;;;;;;2.47;2.27;;;6.10;99.90;;;;;;5046654;28;20449;-61
2020/12/25 06:40:57;;;;;;;4.40;3.47;;;6.20;99.90;;;;;;5035571;28;20424;-59
2020/12/25 06:43:23;;;;;;;3.10;2.80;;;6.20;99.90;;;;;;5035816;28;20445;-66
2020/12/25 06:45:57;;;;;;;3.87;3.27;;;6.20;99.90;;;;;;5038562;28;20426;-58
2020/12/25 06:48:23;;;;;;;4.60;3.27;;;6.20;99.90;;;;;;5053948;28;20250;-58
2020/12/25 06:50:55;;;;;;;3.67;3.27;;;6.00;99.90;;;;;;5054584;28;20481;-59
2020/12/25 06:53:35;;;;;;;5.33;3.37;;;6.00;99.90;;;;;;5045913;28;20184;-59
2020/12/25 06:56:16;;;;;;;4.83;4.10;;;5.90;99.90;;;;;;5030248;28;20431;-59
2020/12/25 06:58:47;;;;;;;4.40;4.00;;;5.90;99.90;;;;;;5035026;28;20416;-67
2020/12/25 07:01:14;;;;;;;6.10;3.53;;;6.00;99.90;;;;;;5035205;28;20496;-67
2020/12/25 07:03:40;;;;;;;5.33;3.83;;;6.10;99.90;;;;;;5049166;28;20453;-66
2020/12/25 07:06:09;;;;;;;5.03;4.50;;;6.10;99.90;;;;;;5054415;28;20427;-59
2020/12/25 07:08:43;;;;;;;5.23;3.70;;;6.20;99.90;;;;;;5042518;28;20447;-66
2020/12/25 07:11:10;;;;;;;3.67;3.00;;;6.40;99.90;;;;;;5035792;28;20441;-59
2020/12/25 07:13:40;;;;;;;3.53;3.17;;;6.40;99.90;;;;;;5015076;28;20850;-67
2020/12/25 07:16:06;;;;;;;4.00;3.43;;;6.40;99.90;;;;;;5024449;28;20420;-67
2020/12/25 07:18:32;;;;;;;7.60;4.37;;;6.30;99.90;;;;;;5035392;28;20470;-67
2020/12/25 07:21:01;;;;;;;4.93;4.50;;;6.30;99.90;;;;;;5033702;28;20419;-66
2020/12/25 07:23:27;;;;;;;5.03;4.10;;;6.20;99.90;;;;;;5034828;28;20458;-59
2020/12/25 07:25:58;;;;;;;5.63;5.10;;;6.20;98.10;;;;;;5033658;28;20427;-66
2020/12/25 07:28:25;;;;;;;3.97;3.60;;;6.20;99.90;;;;;;5034870;28;20931;-59
2020/12/25 07:30:53;;;;;;;4.40;2.97;;;6.20;99.90;;;;;;5036831;28;20478;-59
2020/12/25 07:33:19;;;;;;;3.70;3.20;;;6.10;91.30;;;;;;5042134;28;20764;-59
2020/12/25 07:35:44;;;;;;;2.90;2.70;;;5.90;94.00;;;;;;5051528;28;20517;-66
2020/12/25 07:38:13;;;;;;;2.93;2.73;;;5.90;99.90;;;;;;5052619;28;20826;-66
2020/12/25 07:40:43;;;;;;;2.47;2.10;;;6.00;99.10;;;;;;5052861;28;20178;-59
2020/12/25 07:43:10;;;;;;;5.83;2.77;;;6.10;92.60;;;;;;5034751;28;20935;-59
2020/12/25 07:45:37;;;;;;;2.13;2.03;;;6.10;82.40;;;;;;5045167;28;20656;-68
2020/12/25 07:48:04;;;;;;;2.10;2.00;;;6.00;77.10;;;;;;5047542;28;20560;-59
2020/12/25 07:50:41;;;;;;;2.00;1.87;;;6.10;62.20;;;;;;5034528;28;20512;-60
2020/12/25 07:53:17;;;;;;;2.87;2.27;;;6.20;34.00;;;;;;5035376;28;20434;-68
2020/12/25 07:55:52;;;;;;;3.00;2.40;;;;;;;;;;5012500;28;20440;-60
2020/12/25 07:58:19;;;;;;;3.93;2.70;;;6.20;10.70;;;;;;5024983;28;20789;-60
2020/12/25 08:00:45;;;;;;;2.63;2.43;;;6.20;10.70;;;;;;5036961;28;20435;-60
2020/12/25 08:03:12;;;;;;;3.50;2.37;;;6.20;6.00;;;;;;5051616;28;20492;-68
2020/12/25 08:05:38;;;;;;;2.80;2.30;;;6.30;4.90;;;;;;5040107;28;20443;-59
2020/12/25 08:08:05;;;;;;;4.00;2.40;;;6.40;1.00;;;;;;5034264;28;20550;-61
2020/12/25 08:10:33;;;;;;;2.87;2.40;;;6.30;1.00;;;;;;5035887;28;20427;-60
2020/12/25 08:12:59;;;;;;;2.73;2.23;;;6.30;1.00;;;;;;5037655;28;20506;-60
2020/12/25 08:15:26;;;;;;;3.17;2.40;;;6.30;1.00;;;;;;5037582;28;20819;-60
2020/12/25 08:17:53;;;;;;;2.20;1.93;;;6.40;1.00;;;;;;5044392;28;20431;-59
2020/12/25 08:20:22;;;;;;;2.50;2.30;;;6.30;1.00;;;;;;5053163;28;20959;-60
2020/12/25 08:22:47;;;;;;;2.60;2.27;;;6.20;1.00;;;;;;5035909;28;20470;-60
2020/12/25 08:25:15;;;;;;;5.40;2.20;;;6.20;1.00;;;;;;5034300;28;20423;-62
2020/12/25 08:27:41;;;;;;;2.30;2.10;;;6.20;1.00;;;;;;5033539;28;20204;-67
2020/12/25 08:30:07;;;;;;;2.80;2.57;;;6.20;1.00;;;;;;5033766;28;20885;-67
2020/12/25 08:32:33;;;;;;;2.97;1.90;;;6.10;1.00;;;;;;5033188;28;20517;-68
2020/12/25 08:35:12;;;;;;;2.67;2.00;;;6.00;1.00;;;;;;5022611;28;20190;-59
2020/12/25 08:37:38;;;;;;;2.77;2.23;;;6.00;1.00;;;;;;5025608;28;20434;-58
2020/12/25 08:40:16;;;;;;;2.23;1.90;;;5.80;1.00;;;;;;5033888;28;20510;-59
2020/12/25 08:42:42;;;;;;;1.90;1.80;;;5.80;1.00;;;;;;5033819;28;20427;-58
2020/12/25 08:45:08;;;;;;;1.30;1.20;;;5.80;1.00;;;;;;5033615;28;20415;-58
2020/12/25 08:47:34;;;;;;;1.53;1.23;;;5.80;1.00;;;;;;5034790;28;20193;-59
2020/12/25 08:50:01;;;;;;;1.73;1.63;;;5.80;1.00;;;;;;5037917;28;20443;-59
2020/12/25 08:52:27;;;;;;;6.10;1.97;;;5.80;1.00;;;;;;5044862;28;20430;-59
2020/12/25 08:54:59;;;;;;;2.23;2.03;;;5.90;1.00;;;;;;5040014;28;20486;-60
2020/12/25 08:57:25;;;;;;;2.70;1.73;;;5.80;1.00;;;;;;5038727;28;20416;-67
2020/12/25 09:00:07;;;;;;;3.07;1.67;;;5.90;1.00;;;;;;5043549;28;20430;-67
2020/12/25 09:02:33;;;;;;;2.93;1.90;;;5.90;1.00;;;;;;5038482;28;20419;-60
2020/12/25 09:04:59;;;;;;;2.30;2.10;;;6.10;1.00;;;;;;5039097;28;20518;-59
2020/12/25 09:07:25;;;;;;;2.20;1.50;;;6.00;1.00;;;;;;5037969;28;20200;-59
2020/12/25 09:09:50;;;;;;;4.43;2.30;;;5.90;1.00;;;;;;5044163;28;20613;-68
2020/12/25 09:12:16;;;;;;;1.83;1.73;;;5.80;1.00;;;;;;5039951;28;20246;-59
2020/12/25 09:14:42;;;;;;;2.73;1.90;;;5.80;1.00;;;;;;5036315;28;20191;-59
2020/12/25 09:17:08;;;;;;;1.80;1.57;;;5.90;1.00;;;;;;5024742;28;20437;-67
2020/12/25 09:19:33;;;;;;;2.00;1.90;;;6.00;1.00;;;;;;5042895;28;21634;-60
2020/12/25 09:21:59;;;;;;;2.20;1.63;;;6.00;1.00;;;;;;5056867;28;20470;-59
2020/12/25 09:24:25;;;;;;;2.87;2.30;;;5.80;1.00;;;;;;5056888;28;20517;-67
2020/12/25 09:26:50;;;;;;;2.50;2.00;;;5.90;1.00;;;;;;5050848;28;20664;-59
2020/12/25 09:29:17;;;;;;;7.03;2.07;;;5.90;1.00;;;;;;5052483;28;20177;-67
2020/12/25 09:31:43;;;;;;;2.10;2.00;;;6.00;1.00;;;;;;5042110;28;20673;-67
2020/12/25 09:34:09;;;;;;;2.10;2.00;;;6.00;1.00;;;;;;5045674;28;20430;-66
2020/12/25 09:36:35;;;;;;;2.90;2.13;;;5.90;1.00;;;;;;5032794;28;20969;-67
2020/12/25 09:39:00;;;;;;;1.90;1.80;;;5.80;1.00;;;;;;5036695;28;20255;-68
2020/12/25 09:41:26;;;;;;;2.17;2.03;;;5.80;1.00;;;;;;5035864;28;20175;-67
2020/12/25 09:43:52;;;;;;;2.53;2.10;;;5.60;1.00;;;;;;5035508;28;20181;-67
2020/12/25 09:46:17;;;;;;;1.90;1.80;;;5.60;1.00;;;;;;5036458;28;20177;-60
2020/12/25 09:48:43;;;;;;;1.87;1.70;;;5.50;1.00;;;;;;5051708;28;20195;-59
2020/12/25 09:51:09;;;;;;;2.47;2.27;;;5.40;1.00;;;;;;5055423;28;20169;-60
2020/12/25 09:53:34;;;;;;;2.30;2.10;;;5.20;1.00;;;;;;5053424;28;20189;-66
2020/12/25 09:56:00;;;;;;;3.33;2.37;;;5.40;1.00;;;;;;5037106;28;20181;-57
2020/12/25 09:58:26;;;;;;;1.70;1.60;;;5.40;1.00;;;;;;5038839;28;20185;-67
2020/12/25 10:00:52;;;;;;;2.33;2.13;;;5.40;1.00;;;;;;5046227;28;20190;-65
2020/12/25 10:03:17;;;;;;;3.63;2.20;;;5.20;1.00;;;;;;5042353;28;20178;-65
2020/12/25 10:05:43;;;;;;;2.33;2.13;;;5.30;1.00;;;;;;5038507;28;20541;-58
2020/12/25 10:08:09;;;;;;;4.80;2.30;;;5.40;1.00;;;;;;5056010;28;20202;-58
2020/12/25 10:10:34;;;;;;;2.37;2.07;;;5.50;1.00;;;;;;5056039;28;20168;-64
2020/12/25 10:13:00;;;;;;;1.97;1.80;;;5.50;1.00;;;;;;5055939;28;20173;-64
2020/12/25 10:15:26;;;;;;;3.20;2.70;;;5.50;1.00;;;;;;5054762;28;20290;-65
2020/12/25 10:17:51;;;;;;;3.43;2.47;;;5.70;1.00;;;;;;5054162;28;20185;-65
2020/12/25 10:20:17;;;;;;;2.00;1.90;;;5.80;1.00;;;;;;5054872;28;20180;-59
2020/12/25 10:22:43;;;;;;;3.27;1.80;;;5.80;1.00;;;;;;5054160;28;20194;-57
2020/12/25 10:25:09;;;;;;;2.27;1.90;;;5.80;1.00;;;;;;5056844;28;20199;-59
2020/12/25 10:27:35;;;;;;;1.70;1.53;;;5.90;1.00;;;;;;5058893;28;20939;-68
2020/12/25 10:30:00;;;;;;;2.07;1.87;;;5.70;1.00;;;;;;5055776;28;20721;-68
2020/12/25 10:32:26;;;;;;;2.70;1.67;;;5.80;1.00;;;;;;5054952;28;20644;-59
2020/12/25 10:34:52;;;;;;;3.13;2.40;;;5.90;1.00;;;;;;5036442;28;20211;-58
2020/12/25 10:37:17;;;;;;;2.63;1.60;;;5.90;1.00;;;;;;5017239;28;20213;-67
2020/12/25 10:39:43;;;;;;;2.80;2.00;;;6.20;1.00;;;;;;5019447;28;20187;-59
2020/12/25 10:42:09;;;;;;;2.20;1.77;;;6.00;1.00;;;;;;5047320;28;20179;-58
2020/12/25 10:44:36;;;;;;;3.90;1.20;;;6.00;1.00;;;;;;5048098;28;20182;-66
2020/12/25 10:47:02;;;;;;;1.57;1.20;;;5.90;1.00;;;;;;5036542;28;20463;-57
2020/12/25 10:49:27;;;;;;;0.90;0.90;;;5.80;1.00;;;;;;5036151;28;20904;-57
2020/12/25 10:51:53;;;;;;;1.37;1.20;;;5.40;1.00;;;;;;5036070;28;20442;-58
2020/12/25 10:54:19;;;;;;;0.77;0.77;;;5.20;1.00;;;;;;5041392;28;20187;-68
2020/12/25 10:56:45;;;;;;;1.30;1.10;;;5.20;1.00;;;;;;5053873;28;20186;-59
2020/12/25 10:59:10;;;;;;;1.30;1.20;;;5.30;1.00;;;;;;5038574;28;20273;-67
2020/12/25 11:01:36;;;;;;;2.47;1.10;;;5.50;1.00;;;;;;5055283;28;20215;-58
2020/12/25 11:04:01;;;;;;;1.30;1.20;;;5.40;1.00;;;;;;5036812;28;20185;-58
2020/12/25 11:06:31;;;;;;;1.90;1.57;;;5.40;1.00;;;;;;5035349;28;20184;-68
2020/12/25 11:08:57;;;;;;;1.70;1.40;;;5.50;1.00;;;;;;5052451;28;20197;-59
2020/12/25 11:11:26;;;;;;;1.80;1.50;;;5.40;1.00;;;;;;5054471;28;20434;-67
2020/12/25 11:13:52;;;;;;;1.47;1.37;;;5.60;1.00;;;;;;5053806;28;20437;-59
2020/12/25 11:16:26;;;;;;;1.63;1.40;;;5.60;1.00;;;;;;5054813;28;20410;-58
2020/12/25 11:18:53;;;;;;;1.50;1.40;;;5.60;1.00;;;;;;5053853;28;20194;-68
2020/12/25 11:21:24;;;;;;;2.83;2.20;;;5.50;1.00;;;;;;5054671;28;20410;-68
2020/12/25 11:23:50;;;;;;;3.10;1.97;;;5.60;1.00;;;;;;5044370;28;20794;-58
2020/12/25 11:26:20;;;;;;;2.23;1.80;;;5.50;1.00;;;;;;5033902;28;20494;-59
2020/12/25 11:28:46;;;;;;;1.97;1.83;;;5.50;1.00;;;;;;5034660;28;20715;-59
2020/12/25 11:31:12;;;;;;;6.00;1.90;;;5.40;1.00;;;;;;5033502;28;20472;-65
2020/12/25 11:33:38;;;;;;;4.20;1.80;;;5.20;1.00;;;;;;5045085;28;20179;-60
2020/12/25 11:36:04;;;;;;;1.80;1.53;;;5.30;1.00;;;;;;5053655;28;20422;-59
2020/12/25 11:38:30;;;;;;;2.23;2.13;;;5.30;1.00;;;;;;5037241;28;20446;-58
2020/12/25 11:40:55;;;;;;;1.93;1.77;;;5.40;1.00;;;;;;5041984;28;20513;-59
2020/12/25 11:43:21;;;;;;;2.97;2.27;;;5.60;1.00;;;;;;5054553;28;20177;-60
2020/12/25 11:45:46;;;;;;;2.57;1.80;;;5.60;1.00;;;;;;5054510;28;20199;-60
2020/12/25 11:48:12;;;;;;;7.50;2.03;;;5.50;1.00;;;;;;5053438;28;20249;-59
2020/12/25 11:50:38;;;;;;;1.30;1.20;;;5.50;1.00;;;;;;5035943;28;20191;-60
2020/12/25 11:53:03;;;;;;;2.83;1.53;;;5.60;1.00;;;;;;5034384;28;20263;-66
2020/12/25 11:55:29;;;;;;;1.90;1.47;;;5.60;1.00;;;;;;5034733;28;20176;-64
2020/12/25 11:57:54;;;;;;;2.90;2.10;;;5.60;1.00;;;;;;5034702;28;20173;-65
2020/12/25 12:00:20;;;;;;;5.77;2.73;;;5.50;1.00;;;;;;5034575;28;20176;-66
2020/12/25 12:02:45;;;;;;;2.30;1.93;;;5.60;1.00;;;;;;5043482;28;20180;-65
2020/12/25 12:05:11;;;;;;;1.97;1.63;;;5.60;1.00;;;;;;5033463;28;20183;-65
2020/12/25 12:07:37;;;;;;;1.40;1.30;;;5.50;1.00;;;;;;5034351;28;20208;-65
2020/12/25 12:10:02;;;;;;;3.40;1.70;;;5.60;1.00;;;;;;5034442;28;20184;-68
2020/12/25 12:12:28;;;;;;;2.77;2.03;;;5.60;1.00;;;;;;5033479;28;20179;-70
2020/12/25 12:14:53;;;;;;;1.83;1.67;;;5.60;1.00;;;;;;5035554;28;20176;-69
2020/12/25 12:17:19;;;;;;;1.70;1.53;;;5.70;1.00;;;;;;5034325;28;20608;-68
2020/12/25 12:19:45;;;;;;;2.90;1.73;;;5.50;1.00;;;;;;5035462;28;20193;-69
2020/12/25 12:22:10;;;;;;;1.90;1.63;;;5.50;1.00;;;;;;5034476;28;20907;-69
2020/12/25 12:24:36;;;;;;;5.10;1.50;;;5.70;1.00;;;;;;5035301;28;20638;-68
2020/12/25 12:27:02;;;;;;;2.27;1.87;;;5.50;1.00;;;;;;5037989;28;20198;-64
2020/12/25 12:29:27;;;;;;;1.73;1.63;;;5.60;1.00;;;;;;5036794;28;20832;-65
2020/12/25 12:31:53;;;;;;;3.50;2.40;;;5.60;1.00;;;;;;5037989;28;20168;-64
2020/12/25 12:34:19;;;;;;;1.70;1.60;;;5.50;1.00;;;;;;5038277;28;20411;-63
2020/12/25 12:36:45;;;;;;;2.70;1.33;;;5.60;1.00;;;;;;5038041;28;20191;-61
2020/12/25 12:39:11;;;;;;;1.30;1.10;;;5.70;1.00;;;;;;5045484;28;20176;-59
2020/12/25 12:41:37;;;;;;;1.53;1.20;;;5.70;1.00;;;;;;5058568;28;20414;-59
2020/12/25 12:44:02;;;;;;;2.53;1.03;;;5.70;1.00;;;;;;5059024;28;20180;-65
2020/12/25 12:46:28;;;;;;;1.13;1.03;;;5.70;1.00;;;;;;5057273;28;20180;-67
2020/12/25 12:48:54;;;;;;;0.90;0.90;;;5.70;1.00;;;;;;5041385;28;20180;-71
2020/12/25 12:51:19;;;;;;;1.47;1.10;;;5.80;1.00;;;;;;5036449;28;20606;-68
2020/12/25 12:53:45;;;;;;;1.63;1.20;;;5.90;1.00;;;;;;5037341;28;20192;-58
2020/12/25 12:56:11;;;;;;;1.80;1.47;;;5.90;1.00;;;;;;5037604;28;20172;-58
2020/12/25 12:58:37;;;;;;;1.80;1.23;;;5.70;1.00;;;;;;5042629;28;20267;-59
2020/12/25 13:01:03;;;;;;;2.20;1.70;;;5.70;1.00;;;;;;5056322;28;20442;-63
2020/12/25 13:03:29;;;;;;;3.10;1.60;;;5.70;1.00;;;;;;5050231;28;20519;-59
2020/12/25 13:05:55;;;;;;;1.53;1.40;;;5.70;1.00;;;;;;5036289;28;20190;-59
2020/12/25 13:08:20;;;;;;;2.07;1.77;;;5.80;1.00;;;;;;5036837;28;20632;-67